createdAt,value
2018-01-30T00:01:19.776Z,71.50
2018-01-30T00:03:48.143Z,72.10
2018-01-30T00:06:17.222Z,72.00
2018-01-30T00:08:44.819Z,72.00
2018-01-30T00:11:13.158Z,71.20
2018-01-30T00:13:40.755Z,71.20
2018-01-30T00:16:09.224Z,71.80
2018-01-30T00:18:36.888Z,71.80
2018-01-30T00:21:04.535Z,71.70
2018-01-30T00:23:32.204Z,71.30
2018-01-30T00:26:00.547Z,71.90
2018-01-30T00:28:28.253Z,71.90
2018-01-30T00:30:55.912Z,71.80
2018-01-30T00:33:24.308Z,71.20
2018-01-30T00:35:52.668Z,71.00
2018-01-30T00:38:20.256Z,71.00
2018-01-30T00:40:48.622Z,71.20
2018-01-30T00:43:16.983Z,71.30
2018-01-30T00:45:44.584Z,71.20
2018-01-30T00:48:12.158Z,71.30
2018-01-30T00:50:39.759Z,70.70
2018-01-30T00:53:07.345Z,71.00
2018-01-30T00:55:35.806Z,71.70
2018-01-30T00:58:03.392Z,70.80
2018-01-30T01:00:31.759Z,70.70
2018-01-30T01:02:59.331Z,70.70
2018-01-30T01:05:27.691Z,70.60
2018-01-30T01:07:55.360Z,70.60
2018-01-30T01:10:23.731Z,70.40
2018-01-30T01:12:51.404Z,70.40
2018-01-30T01:15:19.756Z,70.80
2018-01-30T01:17:47.371Z,70.80
2018-01-30T01:20:15.715Z,70.50
2018-01-30T01:22:43.324Z,70.50
2018-01-30T01:25:10.936Z,70.10
2018-01-30T01:27:38.608Z,70.30
2018-01-30T01:30:06.955Z,70.10
2018-01-30T01:32:34.547Z,70.20
2018-01-30T01:35:03.631Z,70.40
2018-01-30T01:37:31.244Z,70.30
2018-01-30T01:39:58.869Z,69.90
2018-01-30T01:42:27.984Z,69.50
2018-01-30T01:44:56.331Z,69.20
2018-01-30T01:47:24.000Z,69.10
2018-01-30T01:49:53.088Z,69.10
2018-01-30T01:52:20.712Z,69.10
2018-01-30T01:54:48.319Z,69.20
2018-01-30T01:57:15.904Z,69.20
2018-01-30T01:59:44.262Z,69.00
2018-01-30T02:02:13.347Z,69.60
2018-01-30T02:04:41.018Z,69.60
2018-01-30T02:07:08.604Z,69.60
2018-01-30T02:09:37.064Z,69.70
2018-01-30T02:12:05.449Z,69.80
2018-01-30T02:14:33.825Z,69.50
2018-01-30T02:17:02.912Z,69.60
2018-01-30T02:19:30.524Z,69.50
2018-01-30T02:21:58.134Z,69.60
2018-01-30T02:24:25.744Z,69.40
2018-01-30T02:26:53.363Z,69.20
2018-01-30T02:29:20.940Z,69.30
2018-01-30T02:31:49.307Z,70.10
2018-01-30T02:34:17.652Z,69.10
2018-01-30T02:36:45.251Z,69.10
2018-01-30T02:39:14.356Z,69.20
2018-01-30T02:41:42.830Z,69.40
2018-01-30T02:44:11.920Z,69.50
2018-01-30T02:46:40.288Z,69.60
2018-01-30T02:49:07.959Z,69.60
2018-01-30T02:51:35.624Z,69.90
2018-01-30T02:54:04.824Z,69.80
2018-01-30T02:56:33.305Z,69.90
2018-01-30T02:59:00.962Z,69.90
2018-01-30T03:01:28.563Z,69.70
2018-01-30T03:03:56.906Z,69.40
2018-01-30T03:06:24.507Z,69.40
2018-01-30T03:08:52.088Z,68.30
2018-01-30T03:11:19.683Z,68.70
2018-01-30T03:13:47.264Z,68.60
2018-01-30T03:16:16.380Z,68.90
2018-01-30T03:18:44.726Z,69.20
2018-01-30T03:21:13.080Z,69.20
2018-01-30T03:23:40.767Z,69.20
2018-01-30T03:26:09.854Z,69.10
2018-01-30T03:28:37.531Z,69.10
2018-01-30T03:31:06.732Z,68.90
2018-01-30T03:33:35.840Z,68.60
2018-01-30T03:36:04.187Z,69.80
2018-01-30T03:38:31.867Z,69.00
2018-01-30T03:41:01.073Z,68.90
2018-01-30T03:43:29.450Z,69.30
2018-01-30T03:45:57.795Z,68.90
2018-01-30T03:48:25.487Z,69.00
2018-01-30T03:50:53.075Z,69.20
2018-01-30T03:53:21.527Z,69.10
2018-01-30T03:55:49.107Z,69.10
2018-01-30T03:58:17.479Z,69.40
2018-01-30T04:00:45.827Z,68.80
2018-01-30T04:03:13.444Z,68.70
2018-01-30T04:05:41.900Z,68.70
2018-01-30T04:08:10.276Z,68.50
2018-01-30T04:10:38.647Z,68.70
2018-01-30T04:13:06.306Z,68.70
2018-01-30T04:15:33.912Z,68.80
2018-01-30T04:18:01.497Z,68.50
2018-01-30T04:20:29.103Z,68.50
2018-01-30T04:22:58.194Z,68.80
2018-01-30T04:25:25.857Z,68.80
2018-01-30T04:27:53.456Z,68.80
2018-01-30T04:30:21.059Z,68.40
2018-01-30T04:32:48.739Z,69.10
2018-01-30T04:35:16.352Z,68.80
2018-01-30T04:37:43.968Z,69.10
2018-01-30T04:40:12.443Z,69.00
2018-01-30T04:42:40.106Z,69.10
2018-01-30T04:45:07.771Z,68.80
2018-01-30T04:47:35.370Z,69.00
2018-01-30T04:50:03.779Z,68.40
2018-01-30T04:52:31.375Z,68.50
2018-01-30T04:55:00.467Z,68.90
2018-01-30T04:57:28.072Z,68.90
2018-01-30T04:59:55.700Z,68.60
2018-01-30T05:02:24.177Z,68.10
2018-01-30T05:04:51.759Z,68.20
2018-01-30T05:07:20.131Z,68.20
2018-01-30T05:09:48.482Z,69.00
2018-01-30T05:12:16.116Z,68.10
2018-01-30T05:14:43.699Z,67.90
2018-01-30T05:17:11.383Z,67.70
2018-01-30T05:19:40.579Z,68.20
2018-01-30T05:22:08.224Z,68.10
2018-01-30T05:24:36.059Z,68.10
2018-01-30T05:27:03.644Z,67.90
2018-01-30T05:29:31.334Z,68.20
2018-01-30T05:31:58.999Z,68.30
2018-01-30T05:34:27.479Z,68.10
2018-01-30T05:36:55.060Z,68.10
2018-01-30T05:39:23.496Z,68.40
2018-01-30T05:41:51.075Z,68.40
2018-01-30T05:44:18.752Z,68.20
2018-01-30T05:46:46.407Z,68.30
2018-01-30T05:49:14.016Z,68.40
2018-01-30T05:51:41.618Z,68.60
2018-01-30T05:54:09.224Z,68.40
2018-01-30T05:56:37.568Z,68.60
2018-01-30T05:59:05.146Z,68.60
2018-01-30T06:01:33.516Z,69.00
2018-01-30T06:04:02.612Z,68.80
2018-01-30T06:06:30.214Z,68.90
2018-01-30T06:08:57.831Z,69.00
2018-01-30T06:11:26.948Z,69.00
2018-01-30T06:13:55.295Z,69.20
2018-01-30T06:16:22.951Z,69.20
2018-01-30T06:18:50.541Z,69.10
2018-01-30T06:21:18.155Z,69.00
2018-01-30T06:23:45.754Z,69.10
2018-01-30T06:26:14.123Z,69.30
2018-01-30T06:28:41.703Z,69.30
2018-01-30T06:31:09.307Z,69.40
2018-01-30T06:33:36.915Z,69.90
2018-01-30T06:36:04.576Z,69.50
2018-01-30T06:38:32.155Z,69.30
2018-01-30T06:41:00.506Z,69.20
2018-01-30T06:43:28.116Z,69.10
2018-01-30T06:45:55.691Z,68.80
2018-01-30T06:48:23.294Z,69.20
2018-01-30T06:50:50.880Z,69.20
2018-01-30T06:53:19.247Z,68.90
2018-01-30T06:55:46.831Z,68.90
2018-01-30T06:58:15.284Z,68.80
2018-01-30T07:00:42.859Z,68.80
2018-01-30T07:03:11.231Z,69.00
2018-01-30T07:05:39.575Z,69.00
2018-01-30T07:08:07.175Z,69.10
2018-01-30T07:10:35.526Z,69.00
2018-01-30T07:13:03.134Z,68.90
2018-01-30T07:15:31.584Z,68.80
2018-01-30T07:17:59.165Z,68.80
2018-01-30T07:20:31.387Z,68.70
2018-01-30T07:22:58.974Z,68.60
2018-01-30T07:25:26.639Z,68.40
2018-01-30T07:27:54.301Z,68.60
2018-01-30T07:30:23.659Z,68.40
2018-01-30T07:32:51.239Z,68.40
2018-01-30T07:35:18.843Z,68.60
2018-01-30T07:37:47.199Z,68.50
2018-01-30T07:40:14.803Z,68.50
2018-01-30T07:42:43.313Z,68.20
2018-01-30T07:45:11.011Z,68.10
2018-01-30T07:47:38.676Z,68.10
2018-01-30T07:50:07.796Z,68.20
2018-01-30T07:52:36.143Z,68.20
2018-01-30T07:55:05.351Z,68.40
2018-01-30T07:57:32.976Z,68.40
2018-01-30T08:00:00.568Z,68.60
2018-01-30T08:02:28.235Z,68.40
2018-01-30T08:04:55.815Z,68.70
2018-01-30T08:07:25.203Z,68.60
2018-01-30T08:09:52.864Z,68.60
2018-01-30T08:12:21.240Z,68.30
2018-01-30T08:14:48.818Z,68.40
2018-01-30T08:17:17.287Z,68.90
2018-01-30T08:19:46.550Z,68.20
2018-01-30T08:22:14.155Z,68.20
2018-01-30T08:24:42.526Z,68.50
2018-01-30T08:27:11.728Z,68.60
2018-01-30T08:29:40.111Z,68.60
2018-01-30T08:32:09.219Z,68.90
2018-01-30T08:34:37.688Z,68.80
2018-01-30T08:37:06.804Z,68.90
2018-01-30T08:39:35.268Z,69.20
2018-01-30T08:42:04.359Z,69.10
2018-01-30T08:44:32.014Z,69.10
2018-01-30T08:46:59.683Z,69.10
2018-01-30T08:49:27.347Z,69.00
2018-01-30T08:51:56.550Z,68.90
2018-01-30T08:54:24.207Z,69.00
2018-01-30T08:56:53.300Z,68.80
2018-01-30T08:59:20.967Z,68.80
2018-01-30T09:01:48.546Z,69.00
2018-01-30T09:04:16.918Z,68.70
2018-01-30T09:06:45.293Z,68.50
2018-01-30T09:09:12.972Z,68.50
2018-01-30T09:11:41.336Z,68.30
2018-01-30T09:14:08.990Z,68.30
2018-01-30T09:16:36.576Z,68.30
2018-01-30T09:19:04.929Z,68.00
2018-01-30T09:21:33.295Z,68.10
2018-01-30T09:24:00.999Z,68.00
2018-01-30T09:26:29.460Z,68.10
2018-01-30T09:28:57.043Z,68.10
2018-01-30T09:31:25.491Z,68.70
2018-01-30T09:33:53.100Z,68.60
2018-01-30T09:36:20.704Z,68.40
2018-01-30T09:38:48.283Z,68.20
2018-01-30T09:41:16.662Z,67.90
2018-01-30T09:43:45.007Z,67.90
2018-01-30T09:46:12.703Z,68.00
2018-01-30T09:48:41.908Z,68.30
2018-01-30T09:51:10.388Z,68.10
2018-01-30T09:53:38.739Z,68.40
2018-01-30T09:56:06.427Z,68.40
2018-01-30T09:58:34.770Z,68.00
2018-01-30T10:01:02.375Z,67.90
2018-01-30T10:03:30.035Z,67.70
2018-01-30T10:05:57.623Z,67.40
2018-01-30T10:08:26.071Z,67.70
2018-01-30T10:10:53.651Z,67.70
2018-01-30T10:13:22.028Z,67.90
2018-01-30T10:15:50.397Z,67.80
2018-01-30T10:18:18.767Z,67.80
2018-01-30T10:20:46.442Z,67.80
2018-01-30T10:23:14.116Z,67.70
2018-01-30T10:25:42.473Z,67.30
2018-01-30T10:28:10.075Z,67.20
2018-01-30T10:30:37.651Z,67.40
2018-01-30T10:33:05.363Z,67.30
2018-01-30T10:35:33.742Z,67.10
2018-01-30T10:38:02.828Z,67.00
2018-01-30T10:40:30.431Z,67.00
2018-01-30T10:42:58.779Z,67.10
2018-01-30T10:45:27.883Z,66.70
2018-01-30T10:47:55.468Z,66.70
2018-01-30T10:50:23.839Z,66.90
2018-01-30T10:52:52.295Z,67.10
2018-01-30T10:55:19.959Z,67.20
2018-01-30T10:57:49.159Z,66.40
2018-01-30T11:00:17.526Z,66.10
2018-01-30T11:02:45.112Z,66.10
2018-01-30T11:05:13.484Z,66.70
2018-01-30T11:07:41.139Z,66.40
2018-01-30T11:10:09.511Z,66.90
2018-01-30T11:12:37.183Z,66.90
2018-01-30T11:15:05.547Z,66.80
2018-01-30T11:17:33.156Z,66.90
2018-01-30T11:20:01.978Z,66.60
2018-01-30T11:22:29.579Z,66.60
2018-01-30T11:24:57.159Z,66.60
2018-01-30T11:27:25.615Z,66.70
2018-01-30T11:29:53.969Z,65.90
2018-01-30T11:32:21.659Z,66.00
2018-01-30T11:34:50.007Z,66.20
2018-01-30T11:37:17.607Z,66.20
2018-01-30T11:39:45.194Z,65.90
2018-01-30T11:42:13.639Z,65.70
2018-01-30T11:44:42.727Z,65.40
2018-01-30T11:47:10.332Z,65.30
2018-01-30T11:49:38.683Z,65.60
2018-01-30T11:52:06.287Z,65.50
2018-01-30T11:54:33.967Z,65.30
2018-01-30T11:57:01.556Z,65.20
2018-01-30T11:59:29.228Z,65.10
2018-01-30T12:01:58.323Z,63.80
2018-01-30T12:04:27.524Z,63.50
2018-01-30T12:06:55.183Z,63.50
2018-01-30T12:09:24.448Z,63.70
2018-01-30T12:11:52.047Z,63.60
2018-01-30T12:14:20.424Z,63.40
2018-01-30T12:16:49.512Z,63.20
2018-01-30T12:19:17.172Z,63.20
2018-01-30T12:21:44.847Z,63.30
2018-01-30T12:24:14.047Z,63.80
2018-01-30T12:26:42.395Z,63.80
2018-01-30T12:29:09.998Z,63.80
2018-01-30T12:31:37.580Z,63.60
2018-01-30T12:34:05.980Z,63.80
2018-01-30T12:36:33.559Z,63.80
2018-01-30T12:39:01.139Z,63.80
2018-01-30T12:41:28.747Z,64.00
2018-01-30T12:43:56.367Z,63.70
2018-01-30T12:46:23.976Z,63.50
2018-01-30T12:48:51.557Z,63.40
2018-01-30T12:51:19.167Z,63.30
2018-01-30T12:53:46.818Z,61.80
2018-01-30T12:56:15.188Z,62.00
2018-01-30T12:58:42.859Z,62.00
2018-01-30T13:01:10.522Z,61.60
2018-01-30T13:03:38.107Z,61.30
2018-01-30T13:06:06.475Z,60.90
2018-01-30T13:08:34.062Z,60.90
2018-01-30T13:11:01.668Z,60.80
2018-01-30T13:13:29.351Z,60.10
2018-01-30T13:15:57.725Z,60.30
2018-01-30T13:18:26.075Z,60.00
2018-01-30T13:20:53.655Z,59.80
2018-01-30T13:23:21.256Z,59.80
2018-01-30T13:25:49.620Z,59.50
2018-01-30T13:28:17.224Z,59.50
2018-01-30T13:30:44.804Z,59.70
2018-01-30T13:33:12.494Z,60.30
2018-01-30T13:35:40.875Z,60.10
2018-01-30T13:38:09.247Z,60.30
2018-01-30T13:40:36.827Z,60.30
2018-01-30T13:43:04.474Z,60.60
2018-01-30T13:45:33.676Z,60.70
2018-01-30T13:48:01.328Z,60.70
2018-01-30T13:50:28.999Z,60.90
2018-01-30T13:52:58.199Z,61.30
2018-01-30T13:55:27.399Z,61.30
2018-01-30T13:57:55.747Z,61.40
2018-01-30T14:00:23.438Z,61.40
2018-01-30T14:02:52.623Z,62.00
2018-01-30T14:05:20.228Z,62.00
2018-01-30T14:07:48.575Z,61.80
2018-01-30T14:10:16.243Z,61.70
2018-01-30T14:12:44.624Z,61.70
2018-01-30T14:15:12.239Z,61.70
2018-01-30T14:17:39.847Z,61.80
2018-01-30T14:20:08.215Z,64.50
2018-01-30T14:22:35.791Z,64.50
2018-01-30T14:25:03.407Z,65.30
2018-01-30T14:27:30.993Z,66.30
2018-01-30T14:29:58.672Z,67.50
2018-01-30T14:32:27.051Z,68.60
2018-01-30T14:34:54.656Z,68.60
2018-01-30T14:37:22.240Z,68.80
2018-01-30T14:39:49.946Z,69.20
2018-01-30T14:42:19.144Z,70.20
2018-01-30T14:44:47.488Z,70.20
2018-01-30T14:47:15.092Z,70.20
2018-01-30T14:49:43.439Z,70.00
2018-01-30T14:52:11.115Z,70.00
2018-01-30T14:54:38.779Z,70.00
2018-01-30T14:57:07.979Z,70.30
2018-01-30T14:59:35.564Z,70.20
2018-01-30T15:02:03.928Z,70.50
2018-01-30T15:04:32.298Z,70.70
2018-01-30T15:06:59.908Z,70.60
2018-01-30T15:09:27.491Z,70.90
2018-01-30T15:11:55.995Z,71.10
2018-01-30T15:14:23.579Z,71.40
2018-01-30T15:16:52.052Z,72.10
2018-01-30T15:19:21.248Z,72.10
2018-01-30T15:21:48.852Z,72.10
2018-01-30T15:24:16.430Z,71.80
2018-01-30T15:26:44.846Z,71.70
2018-01-30T15:29:13.326Z,71.50
2018-01-30T15:31:40.915Z,71.50
2018-01-30T15:34:09.437Z,72.00
2018-01-30T15:36:37.008Z,72.00
2018-01-30T15:39:04.618Z,72.10
2018-01-30T15:41:32.967Z,72.30
2018-01-30T15:44:00.568Z,72.30
2018-01-30T15:46:28.981Z,72.50
2018-01-30T15:48:56.587Z,72.50
2018-01-30T15:51:24.943Z,72.40
2018-01-30T15:53:52.558Z,72.30
2018-01-30T15:56:20.191Z,72.30
2018-01-30T15:58:47.794Z,72.30
2018-01-30T16:01:15.383Z,72.50
2018-01-30T16:03:42.970Z,72.40
2018-01-30T16:06:10.635Z,72.50
2018-01-30T16:08:39.006Z,72.60
2018-01-30T16:11:06.612Z,72.60
2018-01-30T16:13:34.200Z,72.70
2018-01-30T16:16:01.808Z,72.90
2018-01-30T16:18:30.579Z,73.10
2018-01-30T16:20:58.188Z,73.20
2018-01-30T16:23:25.775Z,73.30
2018-01-30T16:25:53.379Z,73.60
2018-01-30T16:28:21.852Z,74.00
2018-01-30T16:30:50.223Z,74.30
2018-01-30T16:33:17.887Z,74.30
2018-01-30T16:35:45.491Z,74.60
2018-01-30T16:38:13.111Z,74.70
2018-01-30T16:40:40.776Z,75.00
2018-01-30T16:43:08.434Z,75.20
2018-01-30T16:45:36.020Z,75.60
2018-01-30T16:48:04.411Z,76.30
2018-01-30T16:50:32.047Z,76.20
2018-01-30T16:52:59.703Z,76.20
2018-01-30T16:55:27.288Z,76.20
2018-01-30T16:57:55.744Z,76.10
2018-01-30T17:00:23.340Z,76.10
2018-01-30T17:02:50.967Z,76.10
2018-01-30T17:05:18.552Z,76.00
2018-01-30T17:07:46.923Z,76.30
2018-01-30T17:10:15.275Z,76.40
2018-01-30T17:12:42.883Z,76.40
2018-01-30T17:15:10.513Z,76.50
2018-01-30T17:17:38.172Z,76.40
2018-01-30T17:20:05.764Z,76.40
2018-01-30T17:22:34.111Z,76.10
2018-01-30T17:25:01.725Z,76.10
2018-01-30T17:27:29.315Z,76.00
2018-01-30T17:29:56.931Z,76.00
2018-01-30T17:32:24.559Z,75.90
2018-01-30T17:34:52.163Z,75.90
2018-01-30T17:37:19.788Z,75.80
2018-01-30T17:39:47.393Z,75.80
2018-01-30T17:42:14.971Z,75.80
2018-01-30T17:44:42.680Z,75.60
2018-01-30T17:47:11.036Z,75.40
2018-01-30T17:49:38.643Z,75.30
2018-01-30T17:52:06.284Z,75.20
2018-01-30T17:54:34.659Z,75.50
2018-01-30T17:57:02.311Z,75.40
2018-01-30T17:59:29.976Z,76.10
2018-01-30T18:01:57.559Z,75.40
2018-01-30T18:04:25.938Z,75.20
2018-01-30T18:06:54.332Z,75.20
2018-01-30T18:09:21.955Z,75.20
2018-01-30T18:11:49.563Z,75.20
2018-01-30T18:14:17.147Z,75.10
2018-01-30T18:16:44.755Z,75.20
2018-01-30T18:19:13.223Z,75.10
2018-01-30T18:21:40.836Z,75.10
2018-01-30T18:24:08.419Z,75.20
2018-01-30T18:26:36.031Z,75.20
2018-01-30T18:29:04.379Z,75.50
2018-01-30T18:31:31.996Z,75.40
2018-01-30T18:33:59.587Z,75.40
2018-01-30T18:36:27.271Z,75.20
2018-01-30T18:38:55.623Z,75.10
2018-01-30T18:41:23.228Z,75.10
2018-01-30T18:43:51.695Z,74.90
2018-01-30T18:46:19.354Z,74.80
2018-01-30T18:48:46.940Z,75.50
2018-01-30T18:51:15.312Z,74.60
2018-01-30T18:53:43.663Z,74.70
2018-01-30T18:56:11.259Z,74.60
2018-01-30T18:58:39.781Z,74.50
2018-01-30T19:01:07.388Z,74.50
2018-01-30T19:03:35.000Z,74.40
2018-01-30T19:06:02.603Z,74.50
2018-01-30T19:08:30.271Z,74.40
2018-01-30T19:10:57.847Z,74.40
2018-01-30T19:13:26.311Z,74.60
2018-01-30T19:15:54.684Z,74.50
2018-01-30T19:18:22.351Z,74.50
2018-01-30T19:20:49.943Z,74.60
2018-01-30T19:23:18.323Z,74.50
2018-01-30T19:25:47.097Z,74.60
2018-01-30T19:28:15.473Z,74.40
2018-01-30T19:30:43.939Z,74.30
2018-01-30T19:33:11.606Z,74.30
2018-01-30T19:35:39.220Z,74.20
2018-01-30T19:38:06.838Z,74.10
2018-01-30T19:40:34.443Z,74.10
2018-01-30T19:43:02.024Z,74.10
2018-01-30T19:45:29.715Z,74.30
2018-01-30T19:47:57.380Z,74.50
2018-01-30T19:50:24.983Z,74.40
2018-01-30T19:52:52.599Z,74.50
2018-01-30T19:55:20.210Z,74.60
2018-01-30T19:57:47.831Z,74.50
2018-01-30T20:00:15.487Z,74.40
2018-01-30T20:02:43.118Z,75.40
2018-01-30T20:05:10.711Z,74.40
2018-01-30T20:07:38.455Z,74.30
2018-01-30T20:10:06.047Z,74.30
2018-01-30T20:12:33.653Z,74.30
2018-01-30T20:15:01.264Z,74.20
2018-01-30T20:17:34.484Z,74.00
2018-01-30T20:20:02.072Z,74.90
2018-01-30T20:22:29.768Z,74.10
2018-01-30T20:24:57.439Z,74.10
2018-01-30T20:27:25.043Z,74.00
2018-01-30T20:29:52.667Z,73.90
2018-01-30T20:32:20.280Z,73.90
2018-01-30T20:34:47.868Z,74.20
2018-01-30T20:37:21.142Z,73.70
2018-01-30T20:39:48.748Z,73.70
2018-01-30T20:42:16.375Z,73.60
2018-01-30T20:44:43.968Z,73.50
2018-01-30T20:47:11.560Z,73.50
2018-01-30T20:49:39.188Z,73.40
2018-01-30T20:52:06.875Z,73.40
2018-01-30T20:54:35.251Z,73.40
2018-01-30T20:57:03.708Z,73.40
2018-01-30T20:59:31.321Z,73.40
2018-01-30T21:01:58.932Z,73.40
2018-01-30T21:04:26.527Z,73.50
2018-01-30T21:06:54.112Z,73.50
2018-01-30T21:09:21.725Z,73.50
2018-01-30T21:11:49.316Z,73.50
2018-01-30T21:14:16.923Z,73.80
2018-01-30T21:16:44.647Z,74.10
2018-01-30T21:19:13.010Z,74.60
2018-01-30T21:21:41.383Z,74.80
2018-01-30T21:24:09.771Z,75.00
2018-01-30T21:26:38.119Z,75.20
2018-01-30T21:29:06.464Z,75.10
2018-01-30T21:31:34.080Z,75.10
2018-01-30T21:34:02.548Z,75.10
2018-01-30T21:36:30.167Z,75.00
2018-01-30T21:38:57.751Z,75.10
2018-01-30T21:41:25.409Z,75.10
2018-01-30T21:43:52.995Z,75.30
2018-01-30T21:46:20.608Z,75.50
2018-01-30T21:48:48.215Z,75.40
2018-01-30T21:51:15.819Z,75.40
2018-01-30T21:53:43.443Z,75.60
2018-01-30T21:56:11.095Z,75.70
2018-01-30T21:58:38.675Z,75.60
2018-01-30T22:01:07.144Z,75.60
2018-01-30T22:03:34.803Z,75.50
2018-01-30T22:06:02.463Z,75.50
2018-01-30T22:08:30.071Z,75.30
2018-01-30T22:10:57.659Z,75.10
2018-01-30T22:13:25.355Z,75.00
2018-01-30T22:15:52.939Z,75.00
2018-01-30T22:18:21.317Z,74.90
2018-01-30T22:20:49.771Z,74.80
2018-01-30T22:23:17.384Z,74.80
2018-01-30T22:25:44.971Z,74.70
2018-01-30T22:28:12.658Z,74.80
2018-01-30T22:30:40.242Z,74.80
2018-01-30T22:33:08.675Z,75.20
2018-01-30T22:35:36.361Z,75.10
2018-01-30T22:38:03.983Z,75.10
2018-01-30T22:40:31.587Z,75.20
2018-01-30T22:42:59.283Z,76.10
2018-01-30T22:45:27.711Z,75.40
